Leeuwarden, Netherlands
Current Conditions -  °F | °C
As of 5:25 PM on Monday 26 Jan 2015 (Local Time) from EHLW Reporting Station
Broken Clouds Broken Clouds  
Wind Chill: 35°   Ceiling: 2400
Heat Index: 43°   Visibility: 6mi
Dew Point: 39°   Wind: 15mph
Humidity: 87%   Direction: 310°NW
Pressure: 30"   Gusts: NA
Location:  53.18°N, 5.82°E
Report Text: EHLW 261625Z AUTO 31013KT 9999 FEW020/// BKN024/// BKN028/// 06/04 Q1016 WHT 30013KT 9999 SCT020
Loading
Personal Weather Stations






























Interactive Weather Map New forecast layout! Learn more

10-Day Weather Forecast

Advertisements
Track Severe Weather on mobile